createdAt,value
2017-07-18T00:00:14.585Z,72.75
2017-07-18T00:02:42.490Z,72.49
2017-07-18T00:05:10.265Z,72.66
2017-07-18T00:07:37.920Z,74.42
2017-07-18T00:10:05.718Z,73.06
2017-07-18T00:12:33.826Z,74.51
2017-07-18T00:15:01.991Z,74.30
2017-07-18T00:17:29.854Z,74.88
2017-07-18T00:19:57.468Z,74.98
2017-07-18T00:22:25.348Z,74.95
2017-07-18T00:24:53.503Z,75.09
2017-07-18T00:27:21.095Z,75.53
2017-07-18T00:29:49.427Z,76.36
2017-07-18T00:32:17.027Z,76.32
2017-07-18T00:34:44.640Z,75.83
2017-07-18T00:37:12.247Z,75.94
2017-07-18T00:39:39.859Z,75.95
2017-07-18T00:42:07.491Z,75.85
2017-07-18T00:44:35.178Z,75.33
2017-07-18T00:47:03.680Z,74.97
2017-07-18T00:49:31.278Z,73.66
2017-07-18T00:51:58.901Z,73.38
2017-07-18T00:54:26.548Z,72.14
2017-07-18T00:56:54.737Z,71.36
2017-07-18T00:59:22.496Z,71.10
2017-07-18T01:01:50.959Z,72.06
2017-07-18T01:04:19.352Z,71.40
2017-07-18T01:06:46.973Z,72.29
2017-07-18T01:09:14.787Z,73.08
2017-07-18T01:11:42.567Z,73.22
2017-07-18T01:14:10.366Z,73.83
2017-07-18T01:16:37.995Z,74.04
2017-07-18T01:19:05.743Z,73.42
2017-07-18T01:21:33.557Z,72.73
2017-07-18T01:24:01.317Z,72.67
2017-07-18T01:26:29.834Z,72.72
2017-07-18T01:28:57.545Z,72.59
2017-07-18T01:31:25.206Z,72.70
2017-07-18T01:33:53.320Z,72.51
2017-07-18T01:36:21.759Z,71.90
2017-07-18T01:38:51.395Z,72.42
2017-07-18T01:41:19.265Z,71.92
2017-07-18T01:43:46.863Z,71.57
2017-07-18T01:46:14.557Z,71.64
2017-07-18T01:48:42.343Z,71.87
2017-07-18T01:51:09.981Z,71.38
2017-07-18T01:53:37.661Z,71.20
2017-07-18T01:56:05.276Z,71.31
2017-07-18T01:58:33.728Z,71.68
2017-07-18T02:01:01.528Z,72.73
2017-07-18T02:03:29.177Z,71.90
2017-07-18T02:05:57.671Z,71.74
2017-07-18T02:08:25.307Z,71.57
2017-07-18T02:10:52.946Z,71.36
2017-07-18T02:13:20.576Z,72.06
2017-07-18T02:15:48.362Z,72.32
2017-07-18T02:18:16.197Z,71.57
2017-07-18T02:20:43.764Z,72.20
2017-07-18T02:23:11.431Z,72.07
2017-07-18T02:25:39.043Z,71.81
2017-07-18T02:28:06.680Z,71.41
2017-07-18T02:30:35.158Z,71.54
2017-07-18T02:33:02.748Z,71.30
2017-07-18T02:35:30.420Z,70.92
2017-07-18T02:37:58.126Z,72.34
2017-07-18T02:40:25.784Z,71.45
2017-07-18T02:42:53.389Z,69.99
2017-07-18T02:45:21.323Z,70.39
2017-07-18T02:47:49.524Z,70.03
2017-07-18T02:50:17.445Z,70.77
2017-07-18T02:52:45.119Z,70.77
2017-07-18T02:55:12.734Z,71.00
2017-07-18T02:57:40.311Z,71.32
2017-07-18T03:00:08.026Z,71.60
2017-07-18T03:02:36.346Z,70.97
2017-07-18T03:05:04.031Z,70.84
2017-07-18T03:07:32.018Z,69.64
2017-07-18T03:09:59.839Z,69.83
2017-07-18T03:12:27.519Z,69.49
2017-07-18T03:14:55.945Z,68.52
2017-07-18T03:17:23.835Z,69.09
2017-07-18T03:19:51.564Z,69.52
2017-07-18T03:22:19.695Z,70.46
2017-07-18T03:24:48.028Z,70.78
2017-07-18T03:27:15.728Z,70.42
2017-07-18T03:29:43.449Z,70.33
2017-07-18T03:32:11.165Z,71.04
2017-07-18T03:34:39.124Z,71.69
2017-07-18T03:37:07.257Z,72.17
2017-07-18T03:39:35.088Z,72.24
2017-07-18T03:42:02.763Z,71.93
2017-07-18T03:44:30.956Z,70.98
2017-07-18T03:46:58.613Z,71.49
2017-07-18T03:49:26.239Z,71.45
2017-07-18T03:51:53.983Z,70.77
2017-07-18T03:54:21.676Z,70.86
2017-07-18T03:56:49.374Z,70.50
2017-07-18T03:59:17.032Z,70.25
2017-07-18T04:01:44.708Z,70.38
2017-07-18T04:04:12.834Z,70.25
2017-07-18T04:06:40.439Z,70.14
2017-07-18T04:09:08.088Z,69.71
2017-07-18T04:11:35.748Z,69.67
2017-07-18T04:14:04.127Z,69.35
2017-07-18T04:16:31.746Z,69.34
2017-07-18T04:18:59.608Z,68.39
2017-07-18T04:21:28.189Z,68.71
2017-07-18T04:23:55.814Z,68.90
2017-07-18T04:26:23.513Z,68.15
2017-07-18T04:28:51.154Z,68.01
2017-07-18T04:31:18.941Z,67.78
2017-07-18T04:33:46.624Z,64.71
2017-07-18T04:36:14.222Z,63.11
2017-07-18T04:38:41.859Z,61.89
2017-07-18T04:41:11.326Z,61.03
2017-07-18T04:43:39.162Z,60.71
2017-07-18T04:46:07.720Z,59.59
2017-07-18T04:48:35.598Z,58.74
2017-07-18T04:51:03.997Z,57.86
2017-07-18T04:53:31.574Z,58.75
2017-07-18T04:55:59.225Z,58.73
2017-07-18T04:58:28.032Z,60.62
2017-07-18T05:00:56.376Z,61.42
2017-07-18T05:03:24.012Z,60.74
2017-07-18T05:05:51.630Z,61.95
2017-07-18T05:08:19.272Z,63.23
2017-07-18T05:10:46.885Z,61.53
2017-07-18T05:13:14.469Z,61.50
2017-07-18T05:15:42.042Z,62.16
2017-07-18T05:18:09.683Z,62.30
2017-07-18T05:20:37.307Z,62.61
2017-07-18T05:23:04.976Z,60.68
2017-07-18T05:25:32.754Z,60.79
2017-07-18T05:28:00.522Z,60.27
2017-07-18T05:30:28.200Z,61.00
2017-07-18T05:32:55.819Z,60.71
2017-07-18T05:35:23.404Z,62.35
2017-07-18T05:37:51.188Z,62.00
2017-07-18T05:40:18.786Z,61.91
2017-07-18T05:42:46.391Z,63.17
2017-07-18T05:45:13.994Z,61.87
2017-07-18T05:47:41.770Z,62.98
2017-07-18T05:50:09.368Z,62.22
2017-07-18T05:52:37.025Z,62.58
2017-07-18T05:55:04.780Z,60.90
2017-07-18T05:57:32.436Z,61.22
2017-07-18T06:00:00.500Z,61.77
2017-07-18T06:02:28.314Z,59.72
2017-07-18T06:04:55.904Z,57.24
2017-07-18T06:07:23.738Z,58.25
2017-07-18T06:09:51.314Z,57.95
2017-07-18T06:12:18.881Z,58.05
2017-07-18T06:14:46.459Z,58.56
2017-07-18T06:17:14.047Z,56.56
2017-07-18T06:19:41.662Z,57.65
2017-07-18T06:22:09.238Z,57.72
2017-07-18T06:24:36.806Z,56.23
2017-07-18T06:27:04.380Z,56.21
2017-07-18T06:29:31.937Z,56.20
2017-07-18T06:31:59.549Z,55.51
2017-07-18T06:34:27.363Z,55.90
2017-07-18T06:36:55.116Z,55.59
2017-07-18T06:39:22.706Z,56.52
2017-07-18T06:41:50.271Z,55.13
2017-07-18T06:44:17.920Z,53.15
2017-07-18T06:46:45.556Z,52.40
2017-07-18T06:49:13.160Z,52.90
2017-07-18T06:51:40.794Z,52.89
2017-07-18T06:54:08.367Z,52.08
2017-07-18T06:56:35.975Z,50.24
2017-07-18T06:59:03.620Z,52.03
2017-07-18T07:01:31.227Z,52.27
2017-07-18T07:03:58.780Z,51.36
2017-07-18T07:06:26.376Z,52.26
2017-07-18T07:08:53.943Z,51.90
2017-07-18T07:11:21.480Z,51.75
2017-07-18T07:13:49.163Z,51.34
2017-07-18T07:16:16.786Z,51.83
2017-07-18T07:18:44.371Z,51.17
2017-07-18T07:21:11.941Z,52.41
2017-07-18T07:23:39.706Z,52.60
2017-07-18T07:26:07.739Z,52.14
2017-07-18T07:28:35.347Z,51.89
2017-07-18T07:31:03.007Z,51.27
2017-07-18T07:33:30.621Z,50.39
2017-07-18T07:35:58.461Z,49.43
2017-07-18T07:38:26.066Z,49.75
2017-07-18T07:40:53.631Z,50.77
2017-07-18T07:43:21.193Z,50.33
2017-07-18T07:45:49.069Z,51.06
2017-07-18T07:48:16.656Z,48.93
2017-07-18T07:50:44.256Z,48.67
2017-07-18T07:53:12.086Z,49.62
2017-07-18T07:55:39.832Z,49.35
2017-07-18T07:58:07.457Z,47.93
2017-07-18T08:00:35.354Z,48.88
2017-07-18T08:03:02.957Z,49.81
2017-07-18T08:05:30.556Z,49.31
2017-07-18T08:07:58.221Z,49.78
2017-07-18T08:10:26.022Z,50.77
2017-07-18T08:12:53.786Z,51.25
2017-07-18T08:15:21.403Z,50.95
2017-07-18T08:17:48.955Z,51.99
2017-07-18T08:20:16.679Z,52.27
2017-07-18T08:22:44.474Z,52.28
2017-07-18T08:25:12.682Z,50.33
2017-07-18T08:27:40.305Z,51.21
2017-07-18T08:30:08.600Z,51.34
2017-07-18T08:32:36.250Z,51.94
2017-07-18T08:35:03.940Z,52.30
2017-07-18T08:37:31.587Z,53.38
2017-07-18T08:39:59.184Z,52.97
2017-07-18T08:42:26.715Z,52.87
2017-07-18T08:44:54.301Z,53.28
2017-07-18T08:47:21.956Z,53.77
2017-07-18T08:49:49.497Z,53.61
2017-07-18T08:52:17.322Z,53.04
2017-07-18T08:54:44.870Z,52.40
2017-07-18T08:57:12.612Z,52.60
2017-07-18T08:59:40.827Z,51.73
2017-07-18T09:02:08.431Z,51.29
2017-07-18T09:04:36.189Z,50.51
2017-07-18T09:07:05.763Z,51.03
2017-07-18T09:09:34.096Z,50.96
2017-07-18T09:12:01.957Z,51.26
2017-07-18T09:14:29.539Z,51.54
2017-07-18T09:16:57.175Z,50.44
2017-07-18T09:19:24.931Z,50.50
2017-07-18T09:21:52.514Z,49.37
2017-07-18T09:24:20.370Z,47.95
2017-07-18T09:26:47.931Z,48.67
2017-07-18T09:29:15.493Z,49.34
2017-07-18T09:31:43.131Z,48.99
2017-07-18T09:34:10.686Z,48.11
2017-07-18T09:36:38.246Z,48.39
2017-07-18T09:39:05.800Z,47.71
2017-07-18T09:41:33.825Z,47.25
2017-07-18T09:44:01.413Z,46.83
2017-07-18T09:46:29.094Z,47.06
2017-07-18T09:48:56.722Z,46.15
2017-07-18T09:51:24.274Z,45.62
2017-07-18T09:53:51.868Z,45.55
2017-07-18T09:56:19.468Z,45.01
2017-07-18T09:58:47.062Z,44.94
2017-07-18T10:01:14.922Z,46.26
2017-07-18T10:03:42.623Z,45.97
2017-07-18T10:06:10.313Z,45.83
2017-07-18T10:08:37.936Z,44.25
2017-07-18T10:11:05.545Z,44.35
2017-07-18T10:13:33.116Z,42.92
2017-07-18T10:16:00.751Z,41.81
2017-07-18T10:18:28.311Z,42.50
2017-07-18T10:20:55.898Z,41.57
2017-07-18T10:23:23.688Z,41.63
2017-07-18T10:25:51.262Z,40.80
2017-07-18T10:28:19.442Z,40.62
2017-07-18T10:30:47.160Z,39.83
2017-07-18T10:33:14.745Z,40.03
2017-07-18T10:35:42.310Z,40.04
2017-07-18T10:38:09.896Z,40.82
2017-07-18T10:40:37.503Z,40.36
2017-07-18T10:43:05.114Z,38.38
2017-07-18T10:45:32.800Z,38.87
2017-07-18T10:48:00.345Z,36.66
2017-07-18T10:50:28.028Z,37.13
2017-07-18T10:52:55.661Z,36.67
2017-07-18T10:55:23.315Z,36.53
2017-07-18T10:57:50.902Z,35.36
2017-07-18T11:00:18.591Z,36.63
2017-07-18T11:02:46.351Z,36.50
2017-07-18T11:05:13.988Z,34.47
2017-07-18T11:07:41.605Z,36.01
2017-07-18T11:10:09.163Z,35.71
2017-07-18T11:12:36.791Z,34.78
2017-07-18T11:15:04.675Z,34.90
2017-07-18T11:17:32.281Z,35.27
2017-07-18T11:19:59.898Z,36.08
2017-07-18T11:22:28.516Z,36.80
2017-07-18T11:24:56.079Z,35.25
2017-07-18T11:27:23.753Z,36.05
2017-07-18T11:29:51.371Z,36.17
2017-07-18T11:32:18.966Z,36.80
2017-07-18T11:34:46.913Z,36.01
2017-07-18T11:37:14.479Z,36.08
2017-07-18T11:39:42.121Z,36.65
2017-07-18T11:42:10.493Z,36.05
2017-07-18T11:44:38.059Z,36.42
2017-07-18T11:47:06.031Z,35.34
2017-07-18T11:49:33.720Z,35.09
2017-07-18T11:52:01.312Z,35.23
2017-07-18T11:54:28.929Z,34.30
2017-07-18T11:56:56.674Z,34.64
2017-07-18T11:59:25.131Z,34.75
2017-07-18T12:01:52.805Z,33.49
2017-07-18T12:04:20.413Z,33.72
2017-07-18T12:06:48.170Z,33.91
2017-07-18T12:09:15.846Z,34.35
2017-07-18T12:11:44.685Z,33.93
2017-07-18T12:14:15.196Z,34.38
2017-07-18T12:16:42.795Z,34.46
2017-07-18T12:19:11.331Z,35.46
2017-07-18T12:21:38.944Z,34.27
2017-07-18T12:24:06.725Z,34.32
2017-07-18T12:26:34.328Z,34.93
2017-07-18T12:29:01.964Z,33.56
2017-07-18T12:31:29.561Z,33.37
2017-07-18T12:33:57.132Z,34.08
2017-07-18T12:36:24.750Z,33.49
2017-07-18T12:38:52.415Z,33.48
2017-07-18T12:41:20.120Z,33.31
2017-07-18T12:43:47.749Z,33.83
2017-07-18T12:46:15.439Z,34.40
2017-07-18T12:48:43.358Z,34.39
2017-07-18T12:51:12.061Z,33.62
2017-07-18T12:53:39.635Z,34.78
2017-07-18T12:56:07.263Z,35.81
2017-07-18T12:58:34.999Z,35.27
2017-07-18T13:01:02.730Z,35.27
2017-07-18T13:03:30.344Z,34.32
2017-07-18T13:05:57.946Z,34.24
2017-07-18T13:08:25.577Z,34.11
2017-07-18T13:10:53.110Z,33.26
2017-07-18T13:13:20.657Z,32.23
2017-07-18T13:15:48.253Z,34.43
2017-07-18T13:18:15.890Z,34.22
2017-07-18T13:20:43.476Z,34.04
2017-07-18T13:23:11.104Z,33.39
2017-07-18T13:25:38.717Z,33.79
2017-07-18T13:28:06.241Z,33.37
2017-07-18T13:30:33.887Z,33.09
2017-07-18T13:33:02.015Z,33.95
2017-07-18T13:35:29.611Z,35.59
2017-07-18T13:37:57.242Z,36.21
2017-07-18T13:40:24.921Z,36.01
2017-07-18T13:42:53.171Z,34.58
2017-07-18T13:45:20.870Z,34.25
2017-07-18T13:47:49.021Z,35.74
2017-07-18T13:50:16.687Z,35.75
2017-07-18T13:52:44.315Z,35.91
2017-07-18T13:55:12.687Z,35.84
2017-07-18T13:57:40.237Z,35.42
2017-07-18T14:00:08.694Z,35.84
2017-07-18T14:02:36.659Z,34.94
2017-07-18T14:05:04.403Z,35.74
2017-07-18T14:07:31.977Z,35.79
2017-07-18T14:09:59.601Z,35.84
2017-07-18T14:12:27.185Z,34.77
2017-07-18T14:14:54.834Z,34.37
2017-07-18T14:17:22.618Z,34.96
2017-07-18T14:19:50.394Z,33.41
2017-07-18T14:22:18.039Z,33.96
2017-07-18T14:24:45.701Z,34.82
2017-07-18T14:27:13.258Z,35.35
2017-07-18T14:29:41.657Z,34.52
2017-07-18T14:32:10.124Z,35.59
2017-07-18T14:34:37.653Z,35.89
2017-07-18T14:37:05.393Z,36.26
2017-07-18T14:39:33.005Z,35.47
2017-07-18T14:42:00.552Z,35.83
2017-07-18T14:44:28.218Z,35.57
2017-07-18T14:46:56.810Z,35.96
2017-07-18T14:49:24.353Z,36.10
2017-07-18T14:51:51.981Z,36.46
2017-07-18T14:54:19.642Z,36.75
2017-07-18T14:56:47.245Z,36.49
2017-07-18T14:59:15.071Z,36.73
2017-07-18T15:01:47.473Z,39.16
2017-07-18T15:04:16.121Z,39.65
2017-07-18T15:06:44.007Z,38.06
2017-07-18T15:09:17.371Z,36.65
2017-07-18T15:11:45.216Z,37.47
2017-07-18T15:14:14.396Z,37.42
2017-07-18T15:16:55.630Z,37.91
2017-07-18T15:19:27.068Z,38.59
2017-07-18T15:21:54.943Z,38.30
2017-07-18T15:24:22.788Z,37.70
2017-07-18T15:26:50.652Z,38.13
2017-07-18T15:32:40.900Z,39.12
2017-07-18T15:35:08.812Z,39.28
2017-07-18T15:37:42.565Z,39.52
2017-07-18T15:40:12.328Z,39.14
2017-07-18T15:42:44.672Z,38.94
2017-07-18T15:45:22.656Z,39.32
2017-07-18T15:47:54.558Z,39.73
2017-07-18T15:50:23.841Z,39.45
2017-07-18T15:52:51.526Z,39.25
2017-07-18T15:55:19.374Z,39.33
2017-07-18T15:57:47.113Z,39.35
2017-07-18T16:00:16.284Z,39.38
2017-07-18T16:02:44.714Z,38.88
2017-07-18T16:05:15.644Z,37.95
2017-07-18T16:07:46.525Z,39.22
2017-07-18T16:10:14.519Z,39.58
2017-07-18T16:12:44.866Z,38.71
2017-07-18T16:15:12.633Z,38.44
2017-07-18T16:17:40.426Z,38.17
2017-07-18T16:20:11.074Z,38.11
2017-07-18T16:22:44.001Z,37.33
2017-07-18T16:28:39.484Z,38.29
2017-07-18T16:31:08.120Z,38.86
2017-07-18T16:33:36.576Z,38.66
2017-07-18T16:36:07.075Z,39.75
2017-07-18T16:38:35.795Z,39.72
2017-07-18T16:41:14.961Z,40.07
2017-07-18T16:44:12.093Z,39.94
2017-07-18T16:50:43.020Z,40.34
2017-07-18T16:53:14.527Z,41.15
2017-07-18T16:55:44.260Z,41.32
2017-07-18T16:58:12.004Z,41.76
2017-07-18T17:00:39.720Z,41.67
2017-07-18T17:03:07.810Z,42.21
2017-07-18T17:05:36.446Z,42.27
2017-07-18T17:08:04.137Z,42.14
2017-07-18T17:10:31.777Z,42.87
2017-07-18T17:12:59.446Z,42.63
2017-07-18T17:15:27.121Z,43.17
2017-07-18T17:17:54.853Z,43.61
2017-07-18T17:20:22.496Z,43.94
2017-07-18T17:22:50.185Z,44.65
2017-07-18T17:25:17.898Z,45.44
2017-07-18T17:27:48.239Z,45.48
2017-07-18T17:30:15.989Z,46.13
2017-07-18T17:32:43.662Z,46.61
2017-07-18T17:35:11.423Z,46.74
2017-07-18T17:37:43.904Z,46.88
2017-07-18T17:40:11.654Z,46.20
2017-07-18T17:45:14.805Z,45.93
2017-07-18T17:47:47.020Z,46.13
2017-07-18T17:50:15.374Z,46.40
2017-07-18T17:52:45.889Z,46.57
2017-07-18T17:55:14.001Z,46.63
2017-07-18T18:01:11.673Z,46.91
2017-07-18T18:20:58.502Z,48.81
2017-07-18T18:40:25.049Z,50.90
2017-07-18T18:46:39.983Z,51.87
2017-07-18T18:49:33.251Z,51.88
2017-07-18T18:52:08.933Z,51.90
2017-07-18T18:54:55.072Z,51.99
2017-07-18T18:57:25.639Z,52.51
2017-07-18T18:59:53.584Z,52.32
2017-07-18T19:02:22.925Z,52.61
2017-07-18T19:04:50.836Z,52.61
2017-07-18T19:07:24.763Z,52.76
2017-07-18T19:09:53.886Z,53.22
2017-07-18T19:12:22.615Z,52.90
2017-07-18T19:14:54.144Z,53.10
2017-07-18T19:17:23.695Z,53.51
2017-07-18T19:19:54.141Z,53.36
2017-07-18T19:22:22.934Z,55.21
2017-07-18T19:24:51.820Z,55.87
2017-07-18T19:27:19.572Z,54.85
2017-07-18T19:29:47.376Z,54.27
2017-07-18T19:32:15.172Z,54.22
2017-07-18T19:34:44.768Z,54.20
2017-07-18T19:37:12.525Z,54.62
2017-07-18T19:39:41.021Z,54.93
2017-07-18T19:42:08.793Z,55.57
2017-07-18T19:44:40.030Z,56.20
2017-07-18T19:47:07.740Z,54.47
2017-07-18T19:49:35.702Z,54.45
2017-07-18T19:52:04.092Z,54.32
2017-07-18T19:54:31.836Z,54.14
2017-07-18T19:56:59.833Z,54.62
2017-07-18T19:59:27.613Z,55.16
2017-07-18T20:01:55.356Z,55.10
2017-07-18T20:04:27.829Z,55.75
2017-07-18T20:06:55.564Z,55.17
2017-07-18T20:09:23.202Z,56.54
2017-07-18T20:11:50.951Z,56.80
2017-07-18T20:14:18.660Z,56.67
2017-07-18T20:16:46.384Z,56.80
2017-07-18T20:19:14.064Z,57.03
2017-07-18T20:21:42.495Z,56.98
2017-07-18T20:24:10.322Z,56.18
2017-07-18T20:26:38.080Z,56.30
2017-07-18T20:29:05.863Z,56.92
2017-07-18T20:31:33.640Z,56.73
2017-07-18T20:34:03.470Z,57.31
2017-07-18T20:36:31.620Z,57.90
2017-07-18T20:38:59.349Z,58.49
2017-07-18T20:41:29.454Z,58.00
2017-07-18T20:43:57.371Z,58.14
2017-07-18T20:46:25.802Z,58.32
2017-07-18T20:48:53.515Z,58.97
2017-07-18T20:51:21.446Z,58.49
2017-07-18T20:53:49.448Z,58.77
2017-07-18T20:56:19.331Z,58.91
2017-07-18T20:58:47.612Z,58.84
2017-07-18T21:01:15.444Z,58.91
2017-07-18T21:03:44.121Z,59.18
2017-07-18T21:06:11.845Z,59.06
2017-07-18T21:08:39.511Z,59.14
2017-07-18T21:11:07.209Z,59.06
2017-07-18T21:13:34.844Z,59.52
2017-07-18T21:16:25.940Z,59.56
2017-07-18T21:18:53.691Z,59.56
2017-07-18T21:31:23.569Z,60.04
2017-07-18T21:33:54.267Z,60.32
2017-07-18T21:36:30.979Z,60.34
2017-07-18T21:38:59.477Z,60.55
2017-07-18T21:41:27.228Z,60.28
2017-07-18T21:43:59.548Z,60.63
2017-07-18T21:46:27.274Z,60.93
2017-07-18T21:48:55.272Z,60.96
2017-07-18T21:53:59.687Z,61.52
2017-07-18T22:01:46.469Z,61.66
2017-07-18T22:04:21.649Z,62.08
2017-07-18T22:06:50.203Z,62.52
2017-07-18T22:09:19.522Z,62.45
2017-07-18T22:11:49.067Z,62.89
2017-07-18T22:14:16.747Z,62.85
2017-07-18T22:16:45.095Z,62.75
2017-07-18T22:19:12.807Z,62.30
2017-07-18T22:21:40.537Z,62.29
2017-07-18T22:24:08.320Z,61.44
2017-07-18T22:26:36.035Z,61.61
2017-07-18T22:29:04.503Z,61.66
2017-07-18T22:31:32.262Z,61.95
2017-07-18T22:33:59.885Z,62.40
2017-07-18T22:36:27.648Z,62.20
2017-07-18T22:38:55.304Z,62.50
2017-07-18T22:41:24.306Z,62.67
2017-07-18T22:43:51.928Z,62.69
2017-07-18T22:46:19.548Z,62.96
2017-07-18T22:48:48.529Z,63.05
2017-07-18T22:51:17.296Z,63.15
2017-07-18T22:53:44.979Z,63.48
2017-07-18T22:56:12.611Z,64.04
2017-07-18T22:58:41.406Z,64.29
2017-07-18T23:01:09.499Z,64.30
2017-07-18T23:03:37.363Z,65.13
2017-07-18T23:06:05.685Z,64.13
2017-07-18T23:08:33.345Z,63.78
2017-07-18T23:11:00.998Z,63.55
2017-07-18T23:13:28.650Z,63.21
2017-07-18T23:15:56.410Z,63.02
2017-07-18T23:18:24.113Z,63.02
2017-07-18T23:20:53.940Z,63.14
2017-07-18T23:23:21.710Z,63.43
2017-07-18T23:25:49.391Z,63.32
2017-07-18T23:28:17.070Z,63.01
2017-07-18T23:30:44.789Z,63.09
2017-07-18T23:33:12.502Z,63.19
2017-07-18T23:35:40.248Z,63.38
2017-07-18T23:38:07.980Z,62.75
2017-07-18T23:40:35.722Z,62.47
2017-07-18T23:43:04.199Z,62.93
2017-07-18T23:45:31.912Z,62.95
2017-07-18T23:47:59.784Z,63.17
2017-07-18T23:50:28.471Z,63.04
2017-07-18T23:52:57.175Z,63.08
2017-07-18T23:55:26.688Z,63.49
2017-07-18T23:57:54.427Z,63.29
